createdAt,value
2022-08-16T00:04:54.543Z,13.73
2022-08-16T00:07:29.293Z,14.07
2022-08-16T00:09:56.878Z,13.55
2022-08-16T00:12:24.159Z,13.95
2022-08-16T00:14:56.819Z,14.15
2022-08-16T00:17:24.741Z,13.75
2022-08-16T00:19:53.537Z,14.02
2022-08-16T00:22:21.229Z,13.88
2022-08-16T00:24:52.162Z,14.60
2022-08-16T00:27:18.915Z,14.65
2022-08-16T00:29:46.224Z,14.48
2022-08-16T00:37:04.565Z,13.93
2022-08-16T00:39:31.656Z,13.25
2022-08-16T00:41:58.483Z,14.93
2022-08-16T00:44:31.911Z,14.75
2022-08-16T00:49:30.794Z,14.98
2022-08-16T00:54:32.983Z,15.55
2022-08-16T00:57:02.525Z,16.20
2022-08-16T00:59:32.897Z,14.90
2022-08-16T01:02:31.661Z,14.93
2022-08-16T01:09:42.798Z,15.73
2022-08-16T01:17:14.562Z,15.30
2022-08-16T01:19:46.373Z,15.43
2022-08-16T01:25:16.537Z,14.77
2022-08-16T01:27:45.808Z,15.00
2022-08-16T01:30:26.694Z,15.45
2022-08-16T01:33:02.846Z,14.55
2022-08-16T01:35:44.430Z,13.60
2022-08-16T01:38:29.356Z,14.50
2022-08-16T01:41:02.622Z,14.18
2022-08-16T01:53:19.933Z,14.90
2022-08-16T01:58:30.271Z,14.45
2022-08-16T02:00:57.648Z,13.88
2022-08-16T02:03:26.650Z,13.80
2022-08-16T02:05:53.771Z,14.68
2022-08-16T02:08:32.703Z,15.43
2022-08-16T02:13:27.936Z,15.73
2022-08-16T02:16:00.350Z,16.13
2022-08-16T02:25:52.769Z,14.40
2022-08-16T02:28:23.315Z,15.60
2022-08-16T02:35:53.935Z,14.88
2022-08-16T02:38:27.920Z,14.60
2022-08-16T02:40:55.035Z,15.20
2022-08-16T02:43:26.818Z,14.10
2022-08-16T02:45:54.460Z,14.65
2022-08-16T02:48:29.329Z,15.75
2022-08-16T02:58:14.933Z,16.15
2022-08-16T03:00:45.462Z,15.88
2022-08-16T03:03:17.825Z,14.43
2022-08-16T03:05:52.186Z,13.80
2022-08-16T03:13:12.890Z,13.52
2022-08-16T03:15:41.735Z,14.07
2022-08-16T03:18:18.556Z,13.60
2022-08-16T03:20:45.570Z,13.65
2022-08-16T03:23:23.452Z,12.65
2022-08-16T03:25:50.192Z,13.52
2022-08-16T03:28:18.616Z,12.68
2022-08-16T03:30:47.580Z,12.15
2022-08-16T03:43:19.866Z,10.82
2022-08-16T03:45:47.645Z,12.25
2022-08-16T03:48:15.161Z,11.48
2022-08-16T03:50:59.535Z,10.77
2022-08-16T03:53:37.889Z,11.27
2022-08-16T03:56:07.729Z,11.27
2022-08-16T03:58:45.514Z,11.63
2022-08-16T04:01:15.333Z,13.02
2022-08-16T04:03:43.202Z,13.80
2022-08-16T04:06:11.155Z,14.80
2022-08-16T04:08:39.662Z,15.00
2022-08-16T04:11:06.435Z,14.57
2022-08-16T04:16:01.790Z,16.63
2022-08-16T04:18:36.971Z,16.45
2022-08-16T04:21:05.002Z,15.80
2022-08-16T04:23:32.940Z,15.73
2022-08-16T04:33:17.922Z,17.15
2022-08-16T04:40:50.211Z,18.25
2022-08-16T04:43:18.771Z,18.98
2022-08-16T04:50:37.907Z,18.52
2022-08-16T05:00:34.371Z,18.75
2022-08-16T05:10:30.619Z,20.00
2022-08-16T05:15:28.045Z,19.17
2022-08-16T05:17:59.046Z,19.17
2022-08-16T05:22:53.018Z,19.52
2022-08-16T05:25:21.179Z,18.90
2022-08-16T05:30:35.322Z,18.95
2022-08-16T05:33:09.107Z,19.27
2022-08-16T05:38:33.114Z,18.55
2022-08-16T05:40:59.637Z,18.10
2022-08-16T05:43:32.200Z,18.55
2022-08-16T05:46:30.574Z,17.80
2022-08-16T05:49:16.693Z,18.95
2022-08-16T05:51:48.958Z,18.60
2022-08-16T05:54:20.267Z,18.48
2022-08-16T05:56:55.812Z,18.23
2022-08-16T05:59:23.281Z,18.70
2022-08-16T06:01:52.199Z,18.92
2022-08-16T06:06:57.022Z,19.30
2022-08-16T06:09:25.271Z,19.25
2022-08-16T06:16:43.498Z,20.20
2022-08-16T06:19:10.553Z,20.63
2022-08-16T06:21:42.792Z,21.02
2022-08-16T06:24:52.543Z,20.08
2022-08-16T06:26:57.835Z,20.30
2022-08-16T06:29:28.646Z,21.52
2022-08-16T06:31:55.439Z,20.67
2022-08-16T06:34:31.568Z,22.38
2022-08-16T06:42:02.552Z,21.13
2022-08-16T06:44:58.616Z,20.40
2022-08-16T06:47:57.064Z,20.43
2022-08-16T06:50:28.875Z,19.88
2022-08-16T06:53:01.157Z,19.48
2022-08-16T06:55:38.114Z,19.35
2022-08-16T06:58:22.454Z,21.15
2022-08-16T07:00:58.077Z,19.83
2022-08-16T07:03:32.355Z,19.17
2022-08-16T07:11:10.153Z,19.90
2022-08-16T07:14:00.252Z,21.10
2022-08-16T07:16:27.777Z,20.77
2022-08-16T07:21:22.573Z,19.75
2022-08-16T07:23:50.090Z,21.10
2022-08-16T07:26:25.766Z,19.08
2022-08-16T07:28:55.982Z,18.67
2022-08-16T07:31:22.656Z,18.58
2022-08-16T07:33:53.451Z,19.35
2022-08-16T07:36:30.893Z,18.45
2022-08-16T07:43:49.926Z,18.05
2022-08-16T07:46:39.671Z,18.48
2022-08-16T07:54:09.494Z,17.83
2022-08-16T07:56:43.122Z,17.63
2022-08-16T07:59:10.671Z,17.30
2022-08-16T08:01:38.507Z,16.90
2022-08-16T08:06:32.507Z,16.65
2022-08-16T08:09:05.127Z,16.40
2022-08-16T08:14:03.665Z,16.85
2022-08-16T08:16:35.634Z,16.25
2022-08-16T08:19:03.126Z,15.32
2022-08-16T08:21:58.482Z,15.40
2022-08-16T08:26:49.918Z,14.90
2022-08-16T08:29:22.874Z,16.45
2022-08-16T08:31:52.146Z,15.52
2022-08-16T08:34:21.211Z,15.23
2022-08-16T08:36:50.207Z,15.48
2022-08-16T08:39:21.379Z,14.07
2022-08-16T08:41:49.260Z,14.85
2022-08-16T08:44:29.130Z,14.63
2022-08-16T08:47:00.592Z,14.10
2022-08-16T08:49:46.371Z,13.80
2022-08-16T08:54:39.812Z,14.65
2022-08-16T08:57:07.508Z,16.85
2022-08-16T09:07:07.763Z,12.85
2022-08-16T09:09:37.809Z,13.05
2022-08-16T09:12:08.456Z,13.35
2022-08-16T09:14:55.045Z,12.48
2022-08-16T09:17:45.643Z,12.15
2022-08-16T09:20:09.558Z,11.13
2022-08-16T09:22:40.464Z,11.15
2022-08-16T09:25:09.872Z,11.43
2022-08-16T09:27:56.989Z,11.07
2022-08-16T09:30:33.781Z,10.68
2022-08-16T09:33:06.826Z,10.32
2022-08-16T09:35:37.307Z,10.75
2022-08-16T09:38:08.675Z,9.95
2022-08-16T09:40:42.329Z,8.75
2022-08-16T09:43:25.914Z,9.35
2022-08-16T09:45:58.094Z,8.77
2022-08-16T09:48:43.956Z,8.80
2022-08-16T09:51:12.351Z,8.32
2022-08-16T09:53:39.473Z,8.57
2022-08-16T09:56:14.851Z,8.00
2022-08-16T09:59:04.825Z,8.63
2022-08-16T10:01:33.406Z,8.30
2022-08-16T10:04:02.202Z,8.02
2022-08-16T10:06:33.825Z,7.50
2022-08-16T10:09:08.489Z,6.85
2022-08-16T10:12:11.133Z,7.10
2022-08-16T10:14:38.812Z,7.50
2022-08-16T10:17:06.291Z,7.47
2022-08-16T10:19:33.795Z,7.65
2022-08-16T10:22:04.865Z,8.00
2022-08-16T10:24:32.765Z,7.25
2022-08-16T10:27:26.802Z,7.35
2022-08-16T10:29:59.979Z,6.22
2022-08-16T10:32:30.504Z,6.35
2022-08-16T10:37:32.686Z,6.40
2022-08-16T10:40:29.529Z,6.20
2022-08-16T10:42:54.388Z,5.78
2022-08-16T10:45:21.040Z,5.55
2022-08-16T10:47:49.607Z,5.10
2022-08-16T10:52:59.243Z,5.00
2022-08-16T10:55:45.369Z,5.57
2022-08-16T11:00:40.907Z,5.85
2022-08-16T11:03:42.308Z,5.00
2022-08-16T11:16:01.215Z,5.20
2022-08-16T11:20:56.311Z,4.38
2022-08-16T11:23:23.520Z,4.70
2022-08-16T11:26:20.538Z,4.25
2022-08-16T11:33:52.608Z,5.00
2022-08-16T11:36:22.579Z,4.50
2022-08-16T11:41:17.680Z,4.95
2022-08-16T11:43:46.976Z,4.93
2022-08-16T11:51:06.421Z,4.20
2022-08-16T11:53:35.890Z,4.80
2022-08-16T11:58:29.008Z,4.05
2022-08-16T12:00:57.752Z,4.57
2022-08-16T12:05:51.953Z,4.25
2022-08-16T12:08:22.443Z,3.58
2022-08-16T12:10:53.356Z,3.78
2022-08-16T12:13:20.097Z,3.75
2022-08-16T12:15:48.168Z,3.90
2022-08-16T12:18:20.763Z,3.63
2022-08-16T12:20:48.371Z,3.72
2022-08-16T12:23:17.370Z,4.03
2022-08-16T12:30:38.841Z,3.17
2022-08-16T12:33:06.729Z,3.13
2022-08-16T12:35:34.159Z,2.95
2022-08-16T12:38:01.157Z,3.15
2022-08-16T12:40:49.378Z,3.15
2022-08-16T12:43:23.602Z,3.38
2022-08-16T12:45:52.166Z,2.67
2022-08-16T12:48:38.206Z,3.15
2022-08-16T12:51:13.791Z,2.92
2022-08-16T12:53:46.265Z,2.90
2022-08-16T12:58:48.455Z,2.72
2022-08-16T13:01:18.640Z,3.38
2022-08-16T13:03:45.631Z,3.03
2022-08-16T13:06:13.302Z,3.25
2022-08-16T13:08:46.760Z,2.50
2022-08-16T13:11:14.534Z,2.67
2022-08-16T13:13:45.122Z,3.00
2022-08-16T13:16:20.121Z,2.58
2022-08-16T13:18:51.602Z,2.95
2022-08-16T13:23:45.743Z,2.40
2022-08-16T13:26:12.860Z,2.83
2022-08-16T13:28:47.002Z,2.72
2022-08-16T13:31:16.024Z,2.53
2022-08-16T13:33:44.008Z,2.17
2022-08-16T13:38:37.844Z,2.70
2022-08-16T13:41:08.669Z,2.25
2022-08-16T13:43:35.856Z,2.10
2022-08-16T13:53:19.340Z,2.22
2022-08-16T13:55:57.945Z,2.35
2022-08-16T13:58:35.635Z,2.28
2022-08-16T14:01:04.647Z,2.70
2022-08-16T14:06:02.684Z,2.42
2022-08-16T14:08:29.608Z,2.55
2022-08-16T14:10:56.333Z,2.17
2022-08-16T14:13:23.083Z,2.60
2022-08-16T14:15:50.113Z,2.17
2022-08-16T14:20:48.267Z,2.55
2022-08-16T14:23:16.242Z,2.90
2022-08-16T14:28:14.031Z,2.10
2022-08-16T14:30:43.547Z,1.95
2022-08-16T14:33:11.969Z,2.30
2022-08-16T14:35:48.812Z,1.77
2022-08-16T14:45:38.832Z,2.67
2022-08-16T14:48:06.272Z,2.30
2022-08-16T14:50:33.886Z,2.75
2022-08-16T14:58:01.766Z,2.78
2022-08-16T15:00:33.155Z,2.30
2022-08-16T15:07:56.199Z,2.15
2022-08-16T15:10:24.314Z,2.10
2022-08-16T15:22:42.952Z,2.33
2022-08-16T15:25:11.998Z,2.63
2022-08-16T15:27:42.241Z,2.42
2022-08-16T15:35:08.767Z,2.10
2022-08-16T15:45:01.335Z,2.05
2022-08-16T15:47:28.516Z,2.30
2022-08-16T15:49:56.081Z,2.28
2022-08-16T15:52:29.437Z,2.97
2022-08-16T15:54:57.248Z,3.00
2022-08-16T15:57:24.777Z,3.28
2022-08-16T16:04:43.943Z,3.17
2022-08-16T16:07:11.383Z,3.65
2022-08-16T16:09:41.341Z,2.92
2022-08-16T16:21:58.246Z,2.97
2022-08-16T16:24:31.414Z,3.17
2022-08-16T16:26:58.316Z,3.25
2022-08-16T16:29:25.398Z,3.35
2022-08-16T16:31:59.671Z,3.10
2022-08-16T16:36:52.967Z,3.03
2022-08-16T16:39:21.024Z,3.38
2022-08-16T16:46:42.992Z,3.17
2022-08-16T16:49:11.284Z,3.25
2022-08-16T16:51:40.900Z,3.08
2022-08-16T16:54:12.824Z,3.08
2022-08-16T16:56:39.756Z,3.10
2022-08-16T16:59:17.174Z,2.90
2022-08-16T17:01:59.448Z,3.13
2022-08-16T17:04:32.434Z,2.67
2022-08-16T17:14:33.180Z,2.30
2022-08-16T17:19:31.663Z,2.80
2022-08-16T17:21:59.104Z,3.05
2022-08-16T17:24:39.820Z,2.70
2022-08-16T17:29:33.065Z,3.20
2022-08-16T17:32:32.522Z,2.85
2022-08-16T17:34:50.774Z,2.80
2022-08-16T17:37:17.811Z,2.63
2022-08-16T17:40:00.613Z,2.50
2022-08-16T17:42:32.543Z,2.60
2022-08-16T17:47:25.096Z,3.00
2022-08-16T17:49:52.186Z,2.88
2022-08-16T17:54:44.820Z,2.90
2022-08-16T17:57:12.503Z,3.03
2022-08-16T17:59:41.187Z,3.08
2022-08-16T18:02:42.978Z,3.47
2022-08-16T18:07:21.454Z,2.83
2022-08-16T18:09:48.181Z,3.05
2022-08-16T18:12:19.855Z,3.08
2022-08-16T18:15:06.472Z,3.58
2022-08-16T18:22:30.238Z,3.38
2022-08-16T18:24:57.879Z,3.72
2022-08-16T18:27:28.604Z,3.90
2022-08-16T18:29:55.542Z,3.42
2022-08-16T18:34:47.769Z,4.10
2022-08-16T18:37:14.464Z,4.15
2022-08-16T18:42:10.907Z,3.78
2022-08-16T18:44:40.849Z,3.53
2022-08-16T18:47:07.877Z,3.38
2022-08-16T18:49:35.476Z,3.40
2022-08-16T18:52:02.983Z,3.83
2022-08-16T18:54:30.085Z,3.17
2022-08-16T18:56:58.224Z,3.72
2022-08-16T18:59:26.532Z,3.80
2022-08-16T19:01:53.386Z,3.45
2022-08-16T19:04:56.349Z,4.00
2022-08-16T19:09:40.323Z,3.50
2022-08-16T19:12:07.225Z,3.80
2022-08-16T19:14:33.956Z,3.58
2022-08-16T19:17:00.644Z,3.65
2022-08-16T19:19:27.347Z,3.63
2022-08-16T19:21:54.011Z,3.45
2022-08-16T19:24:20.671Z,3.65
2022-08-16T19:26:49.618Z,3.80
2022-08-16T19:46:21.594Z,4.78
2022-08-16T19:48:48.311Z,4.60
2022-08-16T19:51:16.567Z,3.92
2022-08-16T19:56:09.565Z,4.55
2022-08-16T19:58:36.890Z,4.05
2022-08-16T20:03:29.119Z,4.30
2022-08-16T20:05:56.695Z,4.10
2022-08-16T20:08:23.458Z,4.57
2022-08-16T20:10:50.623Z,4.53
2022-08-16T20:13:19.000Z,4.80
2022-08-16T20:15:46.911Z,4.38
2022-08-16T20:18:21.558Z,4.40
2022-08-16T20:25:47.570Z,4.00
2022-08-16T20:33:13.159Z,4.30
2022-08-16T20:38:06.957Z,4.28
2022-08-16T20:40:35.330Z,4.95
2022-08-16T20:47:55.974Z,4.25
2022-08-16T20:52:48.588Z,4.03
2022-08-16T20:55:15.473Z,4.40
2022-08-16T20:57:42.146Z,4.65
2022-08-16T21:00:11.071Z,4.55
2022-08-16T21:02:40.902Z,4.50
2022-08-16T21:05:08.436Z,4.55
2022-08-16T21:07:35.894Z,4.55
2022-08-16T21:10:02.557Z,4.43
2022-08-16T21:12:34.571Z,4.72
2022-08-16T21:15:07.578Z,4.53
2022-08-16T21:22:25.196Z,4.72
2022-08-16T21:24:54.017Z,4.90
2022-08-16T21:27:21.079Z,4.40
2022-08-16T21:39:39.942Z,4.57
2022-08-16T21:42:11.362Z,4.88
2022-08-16T21:47:03.666Z,4.55
2022-08-16T21:49:30.374Z,4.60
2022-08-16T21:51:57.131Z,4.57
2022-08-16T21:54:23.841Z,3.75
2022-08-16T21:56:50.490Z,3.53
2022-08-16T21:59:17.185Z,3.20
2022-08-16T22:01:44.035Z,2.95
2022-08-16T22:04:37.546Z,2.70
2022-08-16T22:06:58.723Z,3.00
2022-08-16T22:09:25.541Z,2.58
2022-08-16T22:11:52.191Z,2.72
2022-08-16T22:14:18.824Z,2.58
2022-08-16T22:16:45.481Z,2.70
2022-08-16T22:19:13.300Z,2.97
2022-08-16T22:21:40.043Z,2.90
2022-08-16T22:24:06.943Z,2.70
2022-08-16T22:26:36.794Z,2.50
2022-08-16T22:31:35.399Z,2.90
2022-08-16T22:34:02.697Z,2.92
2022-08-16T22:41:25.412Z,3.85
2022-08-16T22:43:52.510Z,4.38
2022-08-16T22:46:19.723Z,3.70
2022-08-16T22:48:50.174Z,3.55
2022-08-16T22:51:17.592Z,3.60
2022-08-16T22:53:44.327Z,4.22
2022-08-16T22:56:11.006Z,4.00
2022-08-16T22:58:37.743Z,3.85
2022-08-16T23:01:09.777Z,3.70
2022-08-16T23:03:37.051Z,3.72
2022-08-16T23:06:04.147Z,3.30
2022-08-16T23:08:39.397Z,3.58
2022-08-16T23:11:07.620Z,3.97
2022-08-16T23:13:34.343Z,3.60
2022-08-16T23:16:03.267Z,3.30
2022-08-16T23:18:38.410Z,3.30
2022-08-16T23:21:06.933Z,3.40
2022-08-16T23:23:33.613Z,3.13
2022-08-16T23:26:01.274Z,2.80
2022-08-16T23:28:30.470Z,2.83
2022-08-16T23:30:58.119Z,3.20
2022-08-16T23:33:26.387Z,3.85
2022-08-16T23:35:54.628Z,3.15
2022-08-16T23:38:37.723Z,3.20
2022-08-16T23:41:09.134Z,3.10
2022-08-16T23:43:42.123Z,2.70
2022-08-16T23:49:56.135Z,2.97
2022-08-16T23:51:23.928Z,2.88
2022-08-16T23:56:17.940Z,2.90
2022-08-16T23:58:46.042Z,2.67
